sensor_id;sensor_type;location;lat;lon;timestamp;temperature;humidity
52273;DHT22;38227;50.942;4.016;2023-03-14T00:00:30;11.80;99.90
52273;DHT22;38227;50.942;4.016;2023-03-14T00:03:03;11.80;99.90
52273;DHT22;38227;50.942;4.016;2023-03-14T00:05:34;11.80;99.90
52273;DHT22;38227;50.942;4.016;2023-03-14T00:08:23;11.80;99.90
52273;DHT22;38227;50.942;4.016;2023-03-14T00:10:56;11.80;99.90
52273;DHT22;38227;50.942;4.016;2023-03-14T00:13:25;11.70;99.90
52273;DHT22;38227;50.942;4.016;2023-03-14T00:16:11;11.70;99.90
52273;DHT22;38227;50.942;4.016;2023-03-14T00:18:41;11.70;99.90
52273;DHT22;38227;50.942;4.016;2023-03-14T00:21:13;11.60;99.90
52273;DHT22;38227;50.942;4.016;2023-03-14T00:23:51;11.60;99.90
52273;DHT22;38227;50.942;4.016;2023-03-14T00:26:22;11.60;99.90
52273;DHT22;38227;50.942;4.016;2023-03-14T00:29:04;11.70;99.90
52273;DHT22;38227;50.942;4.016;2023-03-14T00:31:33;11.70;99.90
52273;DHT22;38227;50.942;4.016;2023-03-14T00:34:12;11.70;99.90
52273;DHT22;38227;50.942;4.016;2023-03-14T00:36:51;11.60;99.90
52273;DHT22;38227;50.942;4.016;2023-03-14T00:39:29;11.70;99.90
52273;DHT22;38227;50.942;4.016;2023-03-14T00:41:59;11.60;99.90
52273;DHT22;38227;50.942;4.016;2023-03-14T00:44:37;11.50;99.90
52273;DHT22;38227;50.942;4.016;2023-03-14T00:47:06;11.50;99.90
52273;DHT22;38227;50.942;4.016;2023-03-14T00:49:38;11.50;99.90
52273;DHT22;38227;50.942;4.016;2023-03-14T00:52:09;11.50;99.90
52273;DHT22;38227;50.942;4.016;2023-03-14T00:54:48;11.50;99.90
52273;DHT22;38227;50.942;4.016;2023-03-14T00:57:17;11.40;99.90
52273;DHT22;38227;50.942;4.016;2023-03-14T00:59:51;11.40;99.90
52273;DHT22;38227;50.942;4.016;2023-03-14T01:02:23;11.40;99.90
52273;DHT22;38227;50.942;4.016;2023-03-14T01:05:03;11.30;99.90
52273;DHT22;38227;50.942;4.016;2023-03-14T01:07:33;11.30;99.90
52273;DHT22;38227;50.942;4.016;2023-03-14T01:10:05;11.20;99.90
52273;DHT22;38227;50.942;4.016;2023-03-14T01:12:33;11.20;99.90
52273;DHT22;38227;50.942;4.016;2023-03-14T01:15:06;11.20;99.90
52273;DHT22;38227;50.942;4.016;2023-03-14T01:17:34;11.20;99.90
52273;DHT22;38227;50.942;4.016;2023-03-14T01:20:06;11.30;99.90
52273;DHT22;38227;50.942;4.016;2023-03-14T01:22:37;11.20;99.90
52273;DHT22;38227;50.942;4.016;2023-03-14T01:25:06;11.30;99.90
52273;DHT22;38227;50.942;4.016;2023-03-14T01:27:36;11.30;99.90
52273;DHT22;38227;50.942;4.016;2023-03-14T01:30:06;11.20;99.90
52273;DHT22;38227;50.942;4.016;2023-03-14T01:32:36;11.20;99.90
52273;DHT22;38227;50.942;4.016;2023-03-14T01:35:08;11.30;99.90
52273;DHT22;38227;50.942;4.016;2023-03-14T01:37:42;11.30;99.90
52273;DHT22;38227;50.942;4.016;2023-03-14T01:40:11;11.30;99.90
52273;DHT22;38227;50.942;4.016;2023-03-14T01:42:53;11.30;99.90
52273;DHT22;38227;50.942;4.016;2023-03-14T01:52:13;11.20;99.90
52273;DHT22;38227;50.942;4.016;2023-03-14T01:55:19;11.20;99.90
52273;DHT22;38227;50.942;4.016;2023-03-14T01:58:02;11.20;99.90
52273;DHT22;38227;50.942;4.016;2023-03-14T02:00:31;11.30;99.90
52273;DHT22;38227;50.942;4.016;2023-03-14T02:03:17;11.30;99.90
52273;DHT22;38227;50.942;4.016;2023-03-14T02:06:04;11.30;99.90
52273;DHT22;38227;50.942;4.016;2023-03-14T02:08:43;11.30;99.90
52273;DHT22;38227;50.942;4.016;2023-03-14T02:11:16;11.20;99.90
52273;DHT22;38227;50.942;4.016;2023-03-14T02:13:58;11.30;99.90
52273;DHT22;38227;50.942;4.016;2023-03-14T02:16:36;11.30;99.90
52273;DHT22;38227;50.942;4.016;2023-03-14T02:19:11;11.30;99.90
52273;DHT22;38227;50.942;4.016;2023-03-14T02:22:08;11.30;99.90
52273;DHT22;38227;50.942;4.016;2023-03-14T02:27:46;11.30;99.90
52273;DHT22;38227;50.942;4.016;2023-03-14T02:30:21;11.20;99.90
52273;DHT22;38227;50.942;4.016;2023-03-14T02:33:05;11.20;99.90
52273;DHT22;38227;50.942;4.016;2023-03-14T02:35:46;11.10;99.90
52273;DHT22;38227;50.942;4.016;2023-03-14T02:41:40;11.20;99.90
52273;DHT22;38227;50.942;4.016;2023-03-14T02:44:11;11.20;99.90
52273;DHT22;38227;50.942;4.016;2023-03-14T02:46:58;11.10;99.90
52273;DHT22;38227;50.942;4.016;2023-03-14T02:49:33;11.00;99.90
52273;DHT22;38227;50.942;4.016;2023-03-14T02:52:13;10.90;99.90
52273;DHT22;38227;50.942;4.016;2023-03-14T02:54:53;10.80;99.90
52273;DHT22;38227;50.942;4.016;2023-03-14T02:57:25;10.80;99.90
52273;DHT22;38227;50.942;4.016;2023-03-14T03:00:00;10.90;99.90
52273;DHT22;38227;50.942;4.016;2023-03-14T03:02:34;10.70;99.90
52273;DHT22;38227;50.942;4.016;2023-03-14T03:05:04;10.60;99.90
52273;DHT22;38227;50.942;4.016;2023-03-14T03:07:45;10.60;99.90
52273;DHT22;38227;50.942;4.016;2023-03-14T03:10:14;10.50;99.90
52273;DHT22;38227;50.942;4.016;2023-03-14T03:12:47;10.60;99.90
52273;DHT22;38227;50.942;4.016;2023-03-14T03:15:17;10.60;99.90
52273;DHT22;38227;50.942;4.016;2023-03-14T03:17:54;10.60;99.90
52273;DHT22;38227;50.942;4.016;2023-03-14T03:20:23;10.60;99.90
52273;DHT22;38227;50.942;4.016;2023-03-14T03:22:58;10.60;99.90
52273;DHT22;38227;50.942;4.016;2023-03-14T03:25:27;10.60;99.90
52273;DHT22;38227;50.942;4.016;2023-03-14T03:28:05;10.70;99.90
52273;DHT22;38227;50.942;4.016;2023-03-14T03:30:38;10.70;99.90
52273;DHT22;38227;50.942;4.016;2023-03-14T03:33:08;10.70;99.90
52273;DHT22;38227;50.942;4.016;2023-03-14T03:35:48;10.70;99.90
52273;DHT22;38227;50.942;4.016;2023-03-14T03:38:17;10.70;99.90
52273;DHT22;38227;50.942;4.016;2023-03-14T03:40:49;10.70;99.90
52273;DHT22;38227;50.942;4.016;2023-03-14T03:43:22;10.70;99.90
52273;DHT22;38227;50.942;4.016;2023-03-14T03:45:54;10.70;99.90
52273;DHT22;38227;50.942;4.016;2023-03-14T03:48:23;10.80;99.90
52273;DHT22;38227;50.942;4.016;2023-03-14T03:51:02;10.80;99.90
52273;DHT22;38227;50.942;4.016;2023-03-14T03:53:31;10.80;99.90
52273;DHT22;38227;50.942;4.016;2023-03-14T03:56:05;10.90;99.90
52273;DHT22;38227;50.942;4.016;2023-03-14T03:58:35;10.90;99.90
52273;DHT22;38227;50.942;4.016;2023-03-14T04:01:05;11.00;99.90
52273;DHT22;38227;50.942;4.016;2023-03-14T04:03:45;11.10;99.90
52273;DHT22;38227;50.942;4.016;2023-03-14T04:06:20;11.10;99.90
52273;DHT22;38227;50.942;4.016;2023-03-14T04:08:54;11.10;99.90
52273;DHT22;38227;50.942;4.016;2023-03-14T04:11:44;11.10;99.90
52273;DHT22;38227;50.942;4.016;2023-03-14T04:14:17;11.10;99.90
52273;DHT22;38227;50.942;4.016;2023-03-14T04:17:05;11.10;99.90
52273;DHT22;38227;50.942;4.016;2023-03-14T04:19:54;11.10;99.90
52273;DHT22;38227;50.942;4.016;2023-03-14T04:22:28;11.10;99.90
52273;DHT22;38227;50.942;4.016;2023-03-14T04:25:02;11.10;99.90
52273;DHT22;38227;50.942;4.016;2023-03-14T04:27:39;11.00;99.90
52273;DHT22;38227;50.942;4.016;2023-03-14T04:30:14;11.00;99.90
52273;DHT22;38227;50.942;4.016;2023-03-14T04:32:45;11.10;99.90
52273;DHT22;38227;50.942;4.016;2023-03-14T04:35:22;11.10;99.90
52273;DHT22;38227;50.942;4.016;2023-03-14T04:38:03;11.10;99.90
52273;DHT22;38227;50.942;4.016;2023-03-14T04:40:40;11.20;99.90
52273;DHT22;38227;50.942;4.016;2023-03-14T04:43:15;11.20;99.90
52273;DHT22;38227;50.942;4.016;2023-03-14T04:45:57;11.30;99.90
52273;DHT22;38227;50.942;4.016;2023-03-14T04:48:38;11.30;99.90
52273;DHT22;38227;50.942;4.016;2023-03-14T04:51:15;11.40;99.90
52273;DHT22;38227;50.942;4.016;2023-03-14T04:53:45;11.40;99.90
52273;DHT22;38227;50.942;4.016;2023-03-14T04:56:26;11.30;99.90
52273;DHT22;38227;50.942;4.016;2023-03-14T04:58:58;11.30;99.90
52273;DHT22;38227;50.942;4.016;2023-03-14T05:01:39;11.20;99.90
52273;DHT22;38227;50.942;4.016;2023-03-14T05:04:13;11.20;99.90
52273;DHT22;38227;50.942;4.016;2023-03-14T05:06:45;11.30;99.90
52273;DHT22;38227;50.942;4.016;2023-03-14T05:09:26;11.20;99.90
52273;DHT22;38227;50.942;4.016;2023-03-14T05:11:57;11.20;99.90
52273;DHT22;38227;50.942;4.016;2023-03-14T05:14:31;11.30;99.90
52273;DHT22;38227;50.942;4.016;2023-03-14T05:17:10;11.30;99.90
52273;DHT22;38227;50.942;4.016;2023-03-14T05:19:42;11.40;99.90
52273;DHT22;38227;50.942;4.016;2023-03-14T05:22:13;11.40;99.90
52273;DHT22;38227;50.942;4.016;2023-03-14T05:24:43;11.40;99.90
52273;DHT22;38227;50.942;4.016;2023-03-14T05:27:11;11.40;99.90
52273;DHT22;38227;50.942;4.016;2023-03-14T05:29:50;11.40;99.90
52273;DHT22;38227;50.942;4.016;2023-03-14T05:32:20;11.40;99.90
52273;DHT22;38227;50.942;4.016;2023-03-14T05:34:53;11.50;99.90
52273;DHT22;38227;50.942;4.016;2023-03-14T05:37:27;11.50;99.90
52273;DHT22;38227;50.942;4.016;2023-03-14T05:39:59;11.50;99.90
52273;DHT22;38227;50.942;4.016;2023-03-14T05:42:28;11.40;99.90
52273;DHT22;38227;50.942;4.016;2023-03-14T05:45:03;11.60;99.90
52273;DHT22;38227;50.942;4.016;2023-03-14T05:47:33;11.70;99.90
52273;DHT22;38227;50.942;4.016;2023-03-14T05:50:07;11.60;99.90
52273;DHT22;38227;50.942;4.016;2023-03-14T05:52:38;11.60;99.90
52273;DHT22;38227;50.942;4.016;2023-03-14T05:55:20;11.50;99.90
52273;DHT22;38227;50.942;4.016;2023-03-14T05:57:48;11.50;99.90
52273;DHT22;38227;50.942;4.016;2023-03-14T06:00:18;11.50;99.90
52273;DHT22;38227;50.942;4.016;2023-03-14T06:02:51;11.40;99.90
52273;DHT22;38227;50.942;4.016;2023-03-14T06:05:20;11.40;99.90
52273;DHT22;38227;50.942;4.016;2023-03-14T06:07:49;11.40;99.90
52273;DHT22;38227;50.942;4.016;2023-03-14T06:10:28;11.30;99.90
52273;DHT22;38227;50.942;4.016;2023-03-14T06:12:57;11.30;99.90
52273;DHT22;38227;50.942;4.016;2023-03-14T06:15:26;11.20;99.90
52273;DHT22;38227;50.942;4.016;2023-03-14T06:17:58;10.80;99.90
52273;DHT22;38227;50.942;4.016;2023-03-14T06:20:29;10.50;99.90
52273;DHT22;38227;50.942;4.016;2023-03-14T06:22:58;10.30;99.90
52273;DHT22;38227;50.942;4.016;2023-03-14T06:25:37;10.10;99.90
52273;DHT22;38227;50.942;4.016;2023-03-14T06:28:06;9.90;99.90
52273;DHT22;38227;50.942;4.016;2023-03-14T06:30:34;9.70;99.90
52273;DHT22;38227;50.942;4.016;2023-03-14T06:33:03;9.60;99.90
52273;DHT22;38227;50.942;4.016;2023-03-14T06:35:37;9.50;99.90
52273;DHT22;38227;50.942;4.016;2023-03-14T06:38:06;9.50;99.90
52273;DHT22;38227;50.942;4.016;2023-03-14T06:40:35;9.30;99.90
52273;DHT22;38227;50.942;4.016;2023-03-14T06:43:14;9.30;99.90
52273;DHT22;38227;50.942;4.016;2023-03-14T06:45:43;9.20;99.90
52273;DHT22;38227;50.942;4.016;2023-03-14T06:48:12;9.10;99.90
52273;DHT22;38227;50.942;4.016;2023-03-14T06:50:43;9.00;99.90
52273;DHT22;38227;50.942;4.016;2023-03-14T06:53:14;8.90;99.90
52273;DHT22;38227;50.942;4.016;2023-03-14T06:55:43;8.90;99.90
52273;DHT22;38227;50.942;4.016;2023-03-14T06:58:12;8.80;99.90
52273;DHT22;38227;50.942;4.016;2023-03-14T07:00:54;8.80;99.90
52273;DHT22;38227;50.942;4.016;2023-03-14T07:03:24;8.90;99.90
52273;DHT22;38227;50.942;4.016;2023-03-14T07:05:57;9.00;99.90
52273;DHT22;38227;50.942;4.016;2023-03-14T07:08:27;9.00;99.90
52273;DHT22;38227;50.942;4.016;2023-03-14T07:11:05;9.10;99.90
52273;DHT22;38227;50.942;4.016;2023-03-14T07:13:34;8.90;99.90
52273;DHT22;38227;50.942;4.016;2023-03-14T07:16:05;8.90;99.90
52273;DHT22;38227;50.942;4.016;2023-03-14T07:18:34;8.90;99.90
52273;DHT22;38227;50.942;4.016;2023-03-14T07:21:05;9.00;99.90
52273;DHT22;38227;50.942;4.016;2023-03-14T07:23:36;8.90;99.90
52273;DHT22;38227;50.942;4.016;2023-03-14T07:26:05;8.80;99.90
52273;DHT22;38227;50.942;4.016;2023-03-14T07:28:33;8.80;99.90
52273;DHT22;38227;50.942;4.016;2023-03-14T07:31:01;9.10;99.90
52273;DHT22;38227;50.942;4.016;2023-03-14T07:33:34;9.10;99.90
52273;DHT22;38227;50.942;4.016;2023-03-14T07:36:02;9.10;99.90
52273;DHT22;38227;50.942;4.016;2023-03-14T07:38:41;9.20;99.90
52273;DHT22;38227;50.942;4.016;2023-03-14T07:41:11;9.20;99.90
52273;DHT22;38227;50.942;4.016;2023-03-14T07:43:50;9.20;99.90
52273;DHT22;38227;50.942;4.016;2023-03-14T07:46:18;9.20;99.90
52273;DHT22;38227;50.942;4.016;2023-03-14T07:48:47;9.20;99.90
52273;DHT22;38227;50.942;4.016;2023-03-14T07:51:17;9.20;99.90
52273;DHT22;38227;50.942;4.016;2023-03-14T07:53:49;9.20;99.90
52273;DHT22;38227;50.942;4.016;2023-03-14T07:56:18;9.20;99.90
52273;DHT22;38227;50.942;4.016;2023-03-14T07:58:47;9.10;99.90
52273;DHT22;38227;50.942;4.016;2023-03-14T08:01:16;9.00;99.90
52273;DHT22;38227;50.942;4.016;2023-03-14T08:03:48;8.90;99.90
52273;DHT22;38227;50.942;4.016;2023-03-14T08:06:21;9.00;99.90
52273;DHT22;38227;50.942;4.016;2023-03-14T08:08:53;8.90;99.90
52273;DHT22;38227;50.942;4.016;2023-03-14T08:11:35;8.90;99.90
52273;DHT22;38227;50.942;4.016;2023-03-14T08:14:16;8.60;99.90
52273;DHT22;38227;50.942;4.016;2023-03-14T08:16:47;8.50;99.90
52273;DHT22;38227;50.942;4.016;2023-03-14T08:19:28;8.40;99.90
52273;DHT22;38227;50.942;4.016;2023-03-14T08:22:00;8.40;99.90
52273;DHT22;38227;50.942;4.016;2023-03-14T08:24:38;8.30;99.90
52273;DHT22;38227;50.942;4.016;2023-03-14T08:27:07;8.30;99.90
52273;DHT22;38227;50.942;4.016;2023-03-14T08:29:36;8.40;99.90
52273;DHT22;38227;50.942;4.016;2023-03-14T08:32:06;8.30;99.90
52273;DHT22;38227;50.942;4.016;2023-03-14T08:34:34;8.40;99.90
52273;DHT22;38227;50.942;4.016;2023-03-14T08:37:06;8.30;99.90
52273;DHT22;38227;50.942;4.016;2023-03-14T08:39:38;8.30;99.90
52273;DHT22;38227;50.942;4.016;2023-03-14T08:42:09;8.30;99.90
52273;DHT22;38227;50.942;4.016;2023-03-14T08:45:00;8.60;99.90
52273;DHT22;38227;50.942;4.016;2023-03-14T08:47:31;8.60;99.90
52273;DHT22;38227;50.942;4.016;2023-03-14T08:50:09;8.60;99.90
52273;DHT22;38227;50.942;4.016;2023-03-14T08:52:45;8.70;99.90
52273;DHT22;38227;50.942;4.016;2023-03-14T08:55:22;8.70;99.90
52273;DHT22;38227;50.942;4.016;2023-03-14T08:57:53;8.70;99.90
52273;DHT22;38227;50.942;4.016;2023-03-14T09:00:24;8.60;99.90
52273;DHT22;38227;50.942;4.016;2023-03-14T09:02:55;8.70;99.90
52273;DHT22;38227;50.942;4.016;2023-03-14T09:05:27;8.60;99.90
52273;DHT22;38227;50.942;4.016;2023-03-14T09:08:04;8.50;99.90
52273;DHT22;38227;50.942;4.016;2023-03-14T09:10:34;8.50;99.90
52273;DHT22;38227;50.942;4.016;2023-03-14T09:13:13;8.70;99.90
52273;DHT22;38227;50.942;4.016;2023-03-14T09:15:41;8.80;99.90
52273;DHT22;38227;50.942;4.016;2023-03-14T09:18:19;8.90;99.90
52273;DHT22;38227;50.942;4.016;2023-03-14T09:20:49;8.70;99.90
52273;DHT22;38227;50.942;4.016;2023-03-14T09:23:16;8.70;99.90
52273;DHT22;38227;50.942;4.016;2023-03-14T09:25:44;8.70;99.90
52273;DHT22;38227;50.942;4.016;2023-03-14T09:28:12;8.70;99.90
52273;DHT22;38227;50.942;4.016;2023-03-14T09:30:40;8.80;99.90
52273;DHT22;38227;50.942;4.016;2023-03-14T09:33:08;8.90;99.90
52273;DHT22;38227;50.942;4.016;2023-03-14T09:35:41;8.80;99.90
52273;DHT22;38227;50.942;4.016;2023-03-14T09:38:10;8.90;99.90
52273;DHT22;38227;50.942;4.016;2023-03-14T09:40:38;8.70;99.90
52273;DHT22;38227;50.942;4.016;2023-03-14T09:43:13;8.80;99.90
52273;DHT22;38227;50.942;4.016;2023-03-14T09:45:42;8.90;99.90
52273;DHT22;38227;50.942;4.016;2023-03-14T09:48:34;9.00;99.90
52273;DHT22;38227;50.942;4.016;2023-03-14T09:51:10;9.00;99.90
52273;DHT22;38227;50.942;4.016;2023-03-14T09:53:59;8.90;99.90
52273;DHT22;38227;50.942;4.016;2023-03-14T09:56:29;8.90;99.90
52273;DHT22;38227;50.942;4.016;2023-03-14T09:59:04;8.80;99.90
52273;DHT22;38227;50.942;4.016;2023-03-14T10:01:36;8.90;99.90
52273;DHT22;38227;50.942;4.016;2023-03-14T10:04:12;8.70;99.90
52273;DHT22;38227;50.942;4.016;2023-03-14T10:06:41;8.70;99.90
52273;DHT22;38227;50.942;4.016;2023-03-14T10:09:22;8.50;99.90
52273;DHT22;38227;50.942;4.016;2023-03-14T10:11:58;8.50;99.90
52273;DHT22;38227;50.942;4.016;2023-03-14T10:14:36;8.60;99.90
52273;DHT22;38227;50.942;4.016;2023-03-14T10:17:10;8.60;99.90
52273;DHT22;38227;50.942;4.016;2023-03-14T10:19:57;8.50;99.90
52273;DHT22;38227;50.942;4.016;2023-03-14T10:22:31;8.40;99.90
52273;DHT22;38227;50.942;4.016;2023-03-14T10:25:05;8.30;99.90
52273;DHT22;38227;50.942;4.016;2023-03-14T10:27:37;8.30;99.90
52273;DHT22;38227;50.942;4.016;2023-03-14T10:30:51;8.30;99.90
52273;DHT22;38227;50.942;4.016;2023-03-14T10:33:28;8.40;99.90
52273;DHT22;38227;50.942;4.016;2023-03-14T10:36:29;8.40;99.90
52273;DHT22;38227;50.942;4.016;2023-03-14T10:39:47;8.40;99.90
52273;DHT22;38227;50.942;4.016;2023-03-14T10:42:39;8.30;99.90
52273;DHT22;38227;50.942;4.016;2023-03-14T10:45:30;8.20;99.90
52273;DHT22;38227;50.942;4.016;2023-03-14T10:48:17;8.20;99.90
52273;DHT22;38227;50.942;4.016;2023-03-14T10:50:50;8.30;99.90
52273;DHT22;38227;50.942;4.016;2023-03-14T10:53:44;8.30;99.90
52273;DHT22;38227;50.942;4.016;2023-03-14T10:56:18;8.20;99.90
52273;DHT22;38227;50.942;4.016;2023-03-14T10:58:55;8.20;99.90
52273;DHT22;38227;50.942;4.016;2023-03-14T11:08:26;8.00;99.90
52273;DHT22;38227;50.942;4.016;2023-03-14T11:11:36;7.90;99.90
52273;DHT22;38227;50.942;4.016;2023-03-14T11:14:18;7.90;99.90
52273;DHT22;38227;50.942;4.016;2023-03-14T11:17:21;7.90;99.90
52273;DHT22;38227;50.942;4.016;2023-03-14T11:29:12;7.70;99.90
52273;DHT22;38227;50.942;4.016;2023-03-14T11:31:44;7.60;99.90
52273;DHT22;38227;50.942;4.016;2023-03-14T11:34:36;7.70;99.90
52273;DHT22;38227;50.942;4.016;2023-03-14T11:40:18;7.90;99.90
52273;DHT22;38227;50.942;4.016;2023-03-14T11:43:04;7.90;99.90
52273;DHT22;38227;50.942;4.016;2023-03-14T11:45:40;7.80;99.90
52273;DHT22;38227;50.942;4.016;2023-03-14T11:48:34;7.80;99.90
52273;DHT22;38227;50.942;4.016;2023-03-14T11:51:13;8.00;99.90
52273;DHT22;38227;50.942;4.016;2023-03-14T11:57:01;8.10;99.90
52273;DHT22;38227;50.942;4.016;2023-03-14T11:59:58;8.10;99.90
52273;DHT22;38227;50.942;4.016;2023-03-14T12:03:09;8.00;99.90
52273;DHT22;38227;50.942;4.016;2023-03-14T12:08:56;8.30;99.90
52273;DHT22;38227;50.942;4.016;2023-03-14T12:12:00;8.20;99.90
52273;DHT22;38227;50.942;4.016;2023-03-14T12:14:52;8.10;99.90
52273;DHT22;38227;50.942;4.016;2023-03-14T12:17:35;8.00;99.90
52273;DHT22;38227;50.942;4.016;2023-03-14T12:20:26;8.00;99.90
52273;DHT22;38227;50.942;4.016;2023-03-14T12:23:54;8.10;99.90
52273;DHT22;38227;50.942;4.016;2023-03-14T12:26:43;8.10;99.90
52273;DHT22;38227;50.942;4.016;2023-03-14T12:29:34;8.10;99.90
52273;DHT22;38227;50.942;4.016;2023-03-14T12:32:24;8.30;99.90
52273;DHT22;38227;50.942;4.016;2023-03-14T12:35:40;8.20;99.90
52273;DHT22;38227;50.942;4.016;2023-03-14T12:41:34;8.40;99.90
52273;DHT22;38227;50.942;4.016;2023-03-14T12:44:50;8.40;99.90
52273;DHT22;38227;50.942;4.016;2023-03-14T12:47:41;8.30;99.90
52273;DHT22;38227;50.942;4.016;2023-03-14T12:50:29;8.20;99.90
52273;DHT22;38227;50.942;4.016;2023-03-14T13:02:38;8.30;99.90
52273;DHT22;38227;50.942;4.016;2023-03-14T13:05:18;8.40;99.90
52273;DHT22;38227;50.942;4.016;2023-03-14T13:08:09;8.60;99.90
52273;DHT22;38227;50.942;4.016;2023-03-14T13:10:47;8.70;99.90
52273;DHT22;38227;50.942;4.016;2023-03-14T13:13:24;8.70;99.90
52273;DHT22;38227;50.942;4.016;2023-03-14T13:15:56;8.70;99.90
52273;DHT22;38227;50.942;4.016;2023-03-14T13:19:02;8.70;99.90
52273;DHT22;38227;50.942;4.016;2023-03-14T13:21:36;8.70;99.90
52273;DHT22;38227;50.942;4.016;2023-03-14T13:24:21;8.70;99.90
52273;DHT22;38227;50.942;4.016;2023-03-14T13:26:56;8.50;99.90
52273;DHT22;38227;50.942;4.016;2023-03-14T13:29:32;8.30;99.90
52273;DHT22;38227;50.942;4.016;2023-03-14T13:32:01;8.10;99.90
52273;DHT22;38227;50.942;4.016;2023-03-14T13:34:34;8.00;99.90
52273;DHT22;38227;50.942;4.016;2023-03-14T13:37:23;8.00;99.90
52273;DHT22;38227;50.942;4.016;2023-03-14T13:39:55;8.10;99.90
52273;DHT22;38227;50.942;4.016;2023-03-14T13:42:39;8.30;99.90
52273;DHT22;38227;50.942;4.016;2023-03-14T13:45:14;8.40;99.90
52273;DHT22;38227;50.942;4.016;2023-03-14T13:47:52;8.60;99.90
52273;DHT22;38227;50.942;4.016;2023-03-14T13:50:20;8.70;99.90
52273;DHT22;38227;50.942;4.016;2023-03-14T13:52:55;8.70;99.90
52273;DHT22;38227;50.942;4.016;2023-03-14T13:55:25;8.70;99.90
52273;DHT22;38227;50.942;4.016;2023-03-14T13:57:55;8.90;99.90
52273;DHT22;38227;50.942;4.016;2023-03-14T14:00:28;9.00;99.90
52273;DHT22;38227;50.942;4.016;2023-03-14T14:03:00;9.10;99.90
52273;DHT22;38227;50.942;4.016;2023-03-14T14:05:38;9.20;99.90
52273;DHT22;38227;50.942;4.016;2023-03-14T14:08:15;9.30;99.90
52273;DHT22;38227;50.942;4.016;2023-03-14T14:10:50;9.40;99.90
52273;DHT22;38227;50.942;4.016;2023-03-14T14:13:23;9.50;99.90
52273;DHT22;38227;50.942;4.016;2023-03-14T14:16:00;9.40;99.90
52273;DHT22;38227;50.942;4.016;2023-03-14T14:18:30;9.10;99.90
52273;DHT22;38227;50.942;4.016;2023-03-14T14:21:02;8.70;99.90
52273;DHT22;38227;50.942;4.016;2023-03-14T14:23:32;8.60;99.90
52273;DHT22;38227;50.942;4.016;2023-03-14T14:26:00;8.40;99.90
52273;DHT22;38227;50.942;4.016;2023-03-14T14:28:35;8.20;99.90
52273;DHT22;38227;50.942;4.016;2023-03-14T14:31:35;8.20;99.90
52273;DHT22;38227;50.942;4.016;2023-03-14T14:34:04;8.10;99.90
52273;DHT22;38227;50.942;4.016;2023-03-14T14:36:39;8.10;99.90
52273;DHT22;38227;50.942;4.016;2023-03-14T14:39:34;8.10;99.90
52273;DHT22;38227;50.942;4.016;2023-03-14T14:42:03;8.10;99.90
52273;DHT22;38227;50.942;4.016;2023-03-14T14:44:33;7.90;99.90
52273;DHT22;38227;50.942;4.016;2023-03-14T14:47:04;7.90;99.90
52273;DHT22;38227;50.942;4.016;2023-03-14T14:49:42;8.00;99.90
52273;DHT22;38227;50.942;4.016;2023-03-14T14:52:18;7.90;99.90
52273;DHT22;38227;50.942;4.016;2023-03-14T14:55:33;8.10;99.90
52273;DHT22;38227;50.942;4.016;2023-03-14T14:57:40;8.30;99.90
52273;DHT22;38227;50.942;4.016;2023-03-14T15:00:21;8.60;99.90
52273;DHT22;38227;50.942;4.016;2023-03-14T15:02:51;8.60;99.90
52273;DHT22;38227;50.942;4.016;2023-03-14T15:05:25;8.70;99.90
52273;DHT22;38227;50.942;4.016;2023-03-14T15:07:54;8.80;99.90
52273;DHT22;38227;50.942;4.016;2023-03-14T15:10:24;8.80;99.90
52273;DHT22;38227;50.942;4.016;2023-03-14T15:12:52;8.90;99.90
52273;DHT22;38227;50.942;4.016;2023-03-14T15:15:20;9.00;99.90
52273;DHT22;38227;50.942;4.016;2023-03-14T15:17:50;9.00;99.90
52273;DHT22;38227;50.942;4.016;2023-03-14T15:20:18;9.10;99.90
52273;DHT22;38227;50.942;4.016;2023-03-14T15:22:50;9.10;99.90
52273;DHT22;38227;50.942;4.016;2023-03-14T15:25:21;9.00;99.90
52273;DHT22;38227;50.942;4.016;2023-03-14T15:27:49;9.00;99.90
52273;DHT22;38227;50.942;4.016;2023-03-14T15:30:18;9.00;99.90
52273;DHT22;38227;50.942;4.016;2023-03-14T15:32:47;8.90;99.90
52273;DHT22;38227;50.942;4.016;2023-03-14T15:35:19;8.80;99.90
52273;DHT22;38227;50.942;4.016;2023-03-14T15:37:57;8.90;99.90
52273;DHT22;38227;50.942;4.016;2023-03-14T15:40:27;9.00;99.90
52273;DHT22;38227;50.942;4.016;2023-03-14T15:42:55;8.90;99.50
52273;DHT22;38227;50.942;4.016;2023-03-14T15:45:24;8.80;99.60
52273;DHT22;38227;50.942;4.016;2023-03-14T15:47:56;8.70;99.30
52273;DHT22;38227;50.942;4.016;2023-03-14T15:50:26;8.50;99.90
52273;DHT22;38227;50.942;4.016;2023-03-14T15:52:54;8.50;99.90
52273;DHT22;38227;50.942;4.016;2023-03-14T15:55:27;8.50;99.90
52273;DHT22;38227;50.942;4.016;2023-03-14T15:57:55;8.50;99.90
52273;DHT22;38227;50.942;4.016;2023-03-14T16:00:29;8.60;99.90
52273;DHT22;38227;50.942;4.016;2023-03-14T16:02:58;8.70;99.90
52273;DHT22;38227;50.942;4.016;2023-03-14T16:05:39;8.80;99.90
52273;DHT22;38227;50.942;4.016;2023-03-14T16:08:07;8.60;99.90
52273;DHT22;38227;50.942;4.016;2023-03-14T16:10:46;8.60;99.90
52273;DHT22;38227;50.942;4.016;2023-03-14T16:13:14;8.70;99.90
52273;DHT22;38227;50.942;4.016;2023-03-14T16:15:51;8.60;99.90
52273;DHT22;38227;50.942;4.016;2023-03-14T16:18:27;8.60;99.90
52273;DHT22;38227;50.942;4.016;2023-03-14T16:21:06;8.70;99.90
52273;DHT22;38227;50.942;4.016;2023-03-14T16:23:37;8.70;99.90
52273;DHT22;38227;50.942;4.016;2023-03-14T16:26:14;8.70;99.90
52273;DHT22;38227;50.942;4.016;2023-03-14T16:28:45;8.80;99.90
52273;DHT22;38227;50.942;4.016;2023-03-14T16:31:17;8.70;99.90
52273;DHT22;38227;50.942;4.016;2023-03-14T16:33:52;8.80;99.90
52273;DHT22;38227;50.942;4.016;2023-03-14T16:36:20;8.90;99.90
52273;DHT22;38227;50.942;4.016;2023-03-14T16:38:53;8.80;99.90
52273;DHT22;38227;50.942;4.016;2023-03-14T16:41:22;8.60;99.90
52273;DHT22;38227;50.942;4.016;2023-03-14T16:43:55;8.60;99.90
52273;DHT22;38227;50.942;4.016;2023-03-14T16:46:27;8.60;99.90
52273;DHT22;38227;50.942;4.016;2023-03-14T16:48:56;8.50;99.90
52273;DHT22;38227;50.942;4.016;2023-03-14T16:51:32;8.50;99.90
52273;DHT22;38227;50.942;4.016;2023-03-14T16:54:00;8.60;99.90
52273;DHT22;38227;50.942;4.016;2023-03-14T16:56:30;8.60;99.90
52273;DHT22;38227;50.942;4.016;2023-03-14T16:59:02;8.50;99.90
52273;DHT22;38227;50.942;4.016;2023-03-14T17:01:30;8.60;99.90
52273;DHT22;38227;50.942;4.016;2023-03-14T17:04:02;8.50;99.90
52273;DHT22;38227;50.942;4.016;2023-03-14T17:06:31;8.50;99.90
52273;DHT22;38227;50.942;4.016;2023-03-14T17:09:03;8.40;99.90
52273;DHT22;38227;50.942;4.016;2023-03-14T17:11:33;8.30;99.90
52273;DHT22;38227;50.942;4.016;2023-03-14T17:14:04;8.30;99.90
52273;DHT22;38227;50.942;4.016;2023-03-14T17:16:33;8.40;99.90
52273;DHT22;38227;50.942;4.016;2023-03-14T17:19:06;8.50;99.90
52273;DHT22;38227;50.942;4.016;2023-03-14T17:21:34;8.50;99.90
52273;DHT22;38227;50.942;4.016;2023-03-14T17:24:07;8.50;99.90